sensor_id;sensor_type;location;lat;lon;timestamp;P1;durP1;ratioP1;P2;durP2;ratioP2
434;SDS011;204;48.942;9.256;2022-07-06T00:01:29;2.73;;;2.50;;
434;SDS011;204;48.942;9.256;2022-07-06T00:03:55;3.17;;;2.97;;
434;SDS011;204;48.942;9.256;2022-07-06T00:06:20;3.17;;;2.97;;
434;SDS011;204;48.942;9.256;2022-07-06T00:08:47;3.47;;;2.43;;
434;SDS011;204;48.942;9.256;2022-07-06T00:11:12;4.70;;;3.57;;
434;SDS011;204;48.942;9.256;2022-07-06T00:13:38;4.80;;;3.40;;
434;SDS011;204;48.942;9.256;2022-07-06T00:16:04;4.27;;;3.63;;
434;SDS011;204;48.942;9.256;2022-07-06T00:18:30;4.00;;;3.80;;
434;SDS011;204;48.942;9.256;2022-07-06T00:20:55;3.80;;;3.60;;
434;SDS011;204;48.942;9.256;2022-07-06T00:23:21;3.80;;;3.20;;
434;SDS011;204;48.942;9.256;2022-07-06T00:25:47;3.13;;;2.93;;
434;SDS011;204;48.942;9.256;2022-07-06T00:28:13;3.33;;;3.03;;
434;SDS011;204;48.942;9.256;2022-07-06T00:30:39;4.20;;;2.80;;
434;SDS011;204;48.942;9.256;2022-07-06T00:33:04;3.60;;;3.40;;
434;SDS011;204;48.942;9.256;2022-07-06T00:35:30;5.97;;;3.40;;
434;SDS011;204;48.942;9.256;2022-07-06T00:37:56;3.00;;;2.80;;
434;SDS011;204;48.942;9.256;2022-07-06T00:40:21;5.27;;;3.10;;
434;SDS011;204;48.942;9.256;2022-07-06T00:42:47;3.47;;;3.10;;
434;SDS011;204;48.942;9.256;2022-07-06T00:45:14;3.33;;;3.13;;
434;SDS011;204;48.942;9.256;2022-07-06T00:47:41;4.37;;;3.57;;
434;SDS011;204;48.942;9.256;2022-07-06T00:50:08;3.80;;;3.43;;
434;SDS011;204;48.942;9.256;2022-07-06T00:52:38;4.00;;;3.80;;
434;SDS011;204;48.942;9.256;2022-07-06T00:55:05;5.00;;;3.10;;
434;SDS011;204;48.942;9.256;2022-07-06T00:57:31;3.03;;;2.83;;
434;SDS011;204;48.942;9.256;2022-07-06T00:59:57;4.40;;;3.70;;
434;SDS011;204;48.942;9.256;2022-07-06T01:02:23;4.40;;;4.10;;
434;SDS011;204;48.942;9.256;2022-07-06T01:04:49;5.33;;;3.03;;
434;SDS011;204;48.942;9.256;2022-07-06T01:07:14;3.30;;;3.10;;
434;SDS011;204;48.942;9.256;2022-07-06T01:09:40;5.23;;;3.23;;
434;SDS011;204;48.942;9.256;2022-07-06T01:12:06;3.67;;;3.47;;
434;SDS011;204;48.942;9.256;2022-07-06T01:14:32;3.40;;;3.20;;
434;SDS011;204;48.942;9.256;2022-07-06T01:16:58;3.50;;;3.30;;
434;SDS011;204;48.942;9.256;2022-07-06T01:19:23;3.90;;;3.77;;
434;SDS011;204;48.942;9.256;2022-07-06T01:21:50;5.40;;;4.23;;
434;SDS011;204;48.942;9.256;2022-07-06T01:24:15;3.50;;;3.30;;
434;SDS011;204;48.942;9.256;2022-07-06T01:26:41;5.33;;;4.10;;
434;SDS011;204;48.942;9.256;2022-07-06T01:29:06;5.27;;;4.23;;
434;SDS011;204;48.942;9.256;2022-07-06T01:31:32;4.00;;;3.80;;
434;SDS011;204;48.942;9.256;2022-07-06T01:33:58;4.00;;;3.80;;
434;SDS011;204;48.942;9.256;2022-07-06T01:36:24;4.00;;;3.80;;
434;SDS011;204;48.942;9.256;2022-07-06T01:38:54;4.83;;;4.40;;
434;SDS011;204;48.942;9.256;2022-07-06T01:41:23;4.47;;;4.17;;
434;SDS011;204;48.942;9.256;2022-07-06T01:43:48;4.10;;;3.90;;
434;SDS011;204;48.942;9.256;2022-07-06T01:46:14;4.87;;;3.87;;
434;SDS011;204;48.942;9.256;2022-07-06T01:48:40;4.77;;;4.40;;
434;SDS011;204;48.942;9.256;2022-07-06T01:51:06;5.03;;;4.40;;
434;SDS011;204;48.942;9.256;2022-07-06T01:53:32;4.47;;;4.10;;
434;SDS011;204;48.942;9.256;2022-07-06T01:55:57;4.43;;;4.13;;
434;SDS011;204;48.942;9.256;2022-07-06T01:58:23;4.93;;;4.63;;
434;SDS011;204;48.942;9.256;2022-07-06T02:00:49;5.03;;;4.67;;
434;SDS011;204;48.942;9.256;2022-07-06T02:03:14;4.90;;;4.60;;
434;SDS011;204;48.942;9.256;2022-07-06T02:05:40;4.47;;;4.20;;
434;SDS011;204;48.942;9.256;2022-07-06T02:08:05;5.47;;;5.17;;
434;SDS011;204;48.942;9.256;2022-07-06T02:10:31;4.50;;;4.20;;
434;SDS011;204;48.942;9.256;2022-07-06T02:12:57;4.83;;;4.57;;
434;SDS011;204;48.942;9.256;2022-07-06T02:15:22;4.70;;;4.37;;
434;SDS011;204;48.942;9.256;2022-07-06T02:17:48;5.07;;;4.77;;
434;SDS011;204;48.942;9.256;2022-07-06T02:20:14;6.63;;;5.63;;
434;SDS011;204;48.942;9.256;2022-07-06T02:22:39;7.00;;;5.17;;
434;SDS011;204;48.942;9.256;2022-07-06T02:25:05;5.60;;;5.30;;
434;SDS011;204;48.942;9.256;2022-07-06T02:27:31;5.30;;;5.00;;
434;SDS011;204;48.942;9.256;2022-07-06T02:29:56;6.73;;;5.37;;
434;SDS011;204;48.942;9.256;2022-07-06T02:32:22;5.27;;;4.97;;
434;SDS011;204;48.942;9.256;2022-07-06T02:34:48;5.73;;;5.43;;
434;SDS011;204;48.942;9.256;2022-07-06T02:37:14;8.53;;;5.80;;
434;SDS011;204;48.942;9.256;2022-07-06T02:39:39;5.33;;;5.03;;
434;SDS011;204;48.942;9.256;2022-07-06T02:42:05;5.67;;;5.37;;
434;SDS011;204;48.942;9.256;2022-07-06T02:44:31;6.17;;;5.87;;
434;SDS011;204;48.942;9.256;2022-07-06T02:46:56;6.70;;;5.83;;
434;SDS011;204;48.942;9.256;2022-07-06T02:49:22;6.50;;;6.07;;
434;SDS011;204;48.942;9.256;2022-07-06T02:51:47;5.80;;;5.50;;
434;SDS011;204;48.942;9.256;2022-07-06T02:54:13;7.97;;;5.93;;
434;SDS011;204;48.942;9.256;2022-07-06T02:56:38;6.67;;;6.10;;
434;SDS011;204;48.942;9.256;2022-07-06T02:59:04;7.10;;;6.70;;
434;SDS011;204;48.942;9.256;2022-07-06T03:01:29;6.97;;;6.57;;
434;SDS011;204;48.942;9.256;2022-07-06T03:03:55;6.27;;;5.93;;
434;SDS011;204;48.942;9.256;2022-07-06T03:06:21;6.23;;;5.90;;
434;SDS011;204;48.942;9.256;2022-07-06T03:08:46;10.10;;;6.43;;
434;SDS011;204;48.942;9.256;2022-07-06T03:11:12;8.20;;;6.07;;
434;SDS011;204;48.942;9.256;2022-07-06T03:13:37;8.80;;;6.50;;
434;SDS011;204;48.942;9.256;2022-07-06T03:16:03;6.50;;;6.10;;
434;SDS011;204;48.942;9.256;2022-07-06T03:18:28;6.20;;;5.83;;
434;SDS011;204;48.942;9.256;2022-07-06T03:20:54;7.20;;;6.03;;
434;SDS011;204;48.942;9.256;2022-07-06T03:23:20;5.27;;;4.97;;
434;SDS011;204;48.942;9.256;2022-07-06T03:25:45;6.57;;;6.17;;
434;SDS011;204;48.942;9.256;2022-07-06T03:28:11;8.63;;;6.00;;
434;SDS011;204;48.942;9.256;2022-07-06T03:30:37;6.77;;;6.37;;
434;SDS011;204;48.942;9.256;2022-07-06T03:33:02;6.00;;;5.70;;
434;SDS011;204;48.942;9.256;2022-07-06T03:35:28;6.93;;;6.53;;
434;SDS011;204;48.942;9.256;2022-07-06T03:37:53;6.63;;;6.23;;
434;SDS011;204;48.942;9.256;2022-07-06T03:40:19;6.80;;;6.40;;
434;SDS011;204;48.942;9.256;2022-07-06T03:42:45;6.80;;;6.40;;
434;SDS011;204;48.942;9.256;2022-07-06T03:45:11;6.90;;;6.50;;
434;SDS011;204;48.942;9.256;2022-07-06T03:47:36;6.40;;;5.83;;
434;SDS011;204;48.942;9.256;2022-07-06T03:50:02;5.82;;;5.53;;
434;SDS011;204;48.942;9.256;2022-07-06T03:52:28;9.30;;;6.00;;
434;SDS011;204;48.942;9.256;2022-07-06T03:54:54;6.40;;;6.00;;
434;SDS011;204;48.942;9.256;2022-07-06T03:57:20;8.48;;;6.47;;
434;SDS011;204;48.942;9.256;2022-07-06T03:59:46;5.30;;;5.00;;
434;SDS011;204;48.942;9.256;2022-07-06T04:02:12;5.07;;;4.77;;
434;SDS011;204;48.942;9.256;2022-07-06T04:04:38;6.40;;;6.00;;
434;SDS011;204;48.942;9.256;2022-07-06T04:07:03;6.77;;;6.37;;
434;SDS011;204;48.942;9.256;2022-07-06T04:09:29;6.03;;;5.73;;
434;SDS011;204;48.942;9.256;2022-07-06T04:11:55;7.00;;;6.60;;
434;SDS011;204;48.942;9.256;2022-07-06T04:14:21;5.90;;;5.60;;
434;SDS011;204;48.942;9.256;2022-07-06T04:16:46;6.40;;;6.00;;
434;SDS011;204;48.942;9.256;2022-07-06T04:19:12;5.67;;;5.03;;
434;SDS011;204;48.942;9.256;2022-07-06T04:21:38;8.33;;;5.80;;
434;SDS011;204;48.942;9.256;2022-07-06T04:24:03;5.77;;;5.50;;
434;SDS011;204;48.942;9.256;2022-07-06T04:26:29;5.10;;;4.80;;
434;SDS011;204;48.942;9.256;2022-07-06T04:28:55;5.77;;;5.47;;
434;SDS011;204;48.942;9.256;2022-07-06T04:31:20;5.90;;;4.10;;
434;SDS011;204;48.942;9.256;2022-07-06T04:33:46;8.17;;;4.80;;
434;SDS011;204;48.942;9.256;2022-07-06T04:36:12;4.23;;;3.80;;
434;SDS011;204;48.942;9.256;2022-07-06T04:38:37;4.77;;;4.50;;
434;SDS011;204;48.942;9.256;2022-07-06T04:41:03;5.33;;;4.43;;
434;SDS011;204;48.942;9.256;2022-07-06T04:43:29;6.10;;;4.50;;
434;SDS011;204;48.942;9.256;2022-07-06T04:45:54;6.30;;;4.07;;
434;SDS011;204;48.942;9.256;2022-07-06T04:48:20;6.47;;;3.83;;
434;SDS011;204;48.942;9.256;2022-07-06T04:50:45;3.87;;;3.70;;
434;SDS011;204;48.942;9.256;2022-07-06T04:53:11;4.27;;;3.97;;
434;SDS011;204;48.942;9.256;2022-07-06T04:55:37;14.33;;;4.40;;
434;SDS011;204;48.942;9.256;2022-07-06T04:58:03;5.77;;;4.47;;
434;SDS011;204;48.942;9.256;2022-07-06T05:00:28;4.50;;;3.77;;
434;SDS011;204;48.942;9.256;2022-07-06T05:02:54;5.27;;;4.40;;
434;SDS011;204;48.942;9.256;2022-07-06T05:05:19;3.90;;;3.60;;
434;SDS011;204;48.942;9.256;2022-07-06T05:07:48;3.60;;;3.43;;
434;SDS011;204;48.942;9.256;2022-07-06T05:10:14;3.60;;;3.40;;
434;SDS011;204;48.942;9.256;2022-07-06T05:12:39;3.43;;;3.23;;
434;SDS011;204;48.942;9.256;2022-07-06T05:15:06;5.47;;;4.47;;
434;SDS011;204;48.942;9.256;2022-07-06T05:17:32;3.33;;;3.13;;
434;SDS011;204;48.942;9.256;2022-07-06T05:19:57;28.13;;;7.90;;
434;SDS011;204;48.942;9.256;2022-07-06T05:22:23;10.67;;;4.77;;
434;SDS011;204;48.942;9.256;2022-07-06T05:24:49;6.60;;;4.37;;
434;SDS011;204;48.942;9.256;2022-07-06T05:27:15;4.20;;;3.23;;
434;SDS011;204;48.942;9.256;2022-07-06T05:29:41;7.30;;;3.67;;
434;SDS011;204;48.942;9.256;2022-07-06T05:32:06;7.80;;;4.43;;
434;SDS011;204;48.942;9.256;2022-07-06T05:34:32;3.60;;;3.40;;
434;SDS011;204;48.942;9.256;2022-07-06T05:37:00;5.43;;;3.87;;
434;SDS011;204;48.942;9.256;2022-07-06T05:39:26;6.20;;;3.40;;
434;SDS011;204;48.942;9.256;2022-07-06T05:41:51;4.80;;;3.60;;
434;SDS011;204;48.942;9.256;2022-07-06T05:44:17;6.10;;;3.80;;
434;SDS011;204;48.942;9.256;2022-07-06T05:46:42;9.63;;;4.20;;
434;SDS011;204;48.942;9.256;2022-07-06T05:49:08;3.70;;;3.40;;
434;SDS011;204;48.942;9.256;2022-07-06T05:51:52;6.73;;;3.77;;
434;SDS011;204;48.942;9.256;2022-07-06T05:54:18;4.10;;;3.80;;
434;SDS011;204;48.942;9.256;2022-07-06T05:56:43;3.87;;;3.70;;
434;SDS011;204;48.942;9.256;2022-07-06T05:59:11;4.60;;;3.73;;
434;SDS011;204;48.942;9.256;2022-07-06T06:01:37;3.97;;;3.60;;
434;SDS011;204;48.942;9.256;2022-07-06T06:04:03;6.20;;;4.13;;
434;SDS011;204;48.942;9.256;2022-07-06T06:06:28;7.40;;;3.60;;
434;SDS011;204;48.942;9.256;2022-07-06T06:08:56;4.83;;;3.40;;
434;SDS011;204;48.942;9.256;2022-07-06T06:11:22;17.53;;;6.10;;
434;SDS011;204;48.942;9.256;2022-07-06T06:13:47;5.53;;;3.97;;
434;SDS011;204;48.942;9.256;2022-07-06T06:16:13;6.07;;;3.80;;
434;SDS011;204;48.942;9.256;2022-07-06T06:18:40;3.97;;;3.77;;
434;SDS011;204;48.942;9.256;2022-07-06T06:21:09;5.17;;;3.63;;
434;SDS011;204;48.942;9.256;2022-07-06T06:23:35;4.33;;;3.70;;
434;SDS011;204;48.942;9.256;2022-07-06T06:26:01;3.93;;;3.60;;
434;SDS011;204;48.942;9.256;2022-07-06T06:28:26;6.33;;;3.97;;
434;SDS011;204;48.942;9.256;2022-07-06T06:30:52;5.87;;;3.37;;
434;SDS011;204;48.942;9.256;2022-07-06T06:33:18;3.77;;;3.50;;
434;SDS011;204;48.942;9.256;2022-07-06T06:35:49;3.40;;;3.20;;
434;SDS011;204;48.942;9.256;2022-07-06T06:38:17;3.73;;;2.90;;
434;SDS011;204;48.942;9.256;2022-07-06T06:40:47;3.00;;;2.80;;
434;SDS011;204;48.942;9.256;2022-07-06T06:43:13;4.00;;;3.07;;
434;SDS011;204;48.942;9.256;2022-07-06T06:45:38;6.30;;;2.67;;
434;SDS011;204;48.942;9.256;2022-07-06T06:48:05;3.43;;;2.97;;
434;SDS011;204;48.942;9.256;2022-07-06T06:50:31;3.40;;;2.50;;
434;SDS011;204;48.942;9.256;2022-07-06T06:52:56;2.30;;;2.20;;
434;SDS011;204;48.942;9.256;2022-07-06T06:55:22;2.63;;;2.33;;
434;SDS011;204;48.942;9.256;2022-07-06T06:57:48;4.80;;;3.13;;
434;SDS011;204;48.942;9.256;2022-07-06T07:00:13;3.90;;;2.63;;
434;SDS011;204;48.942;9.256;2022-07-06T07:02:39;3.07;;;2.60;;
434;SDS011;204;48.942;9.256;2022-07-06T07:05:05;3.47;;;2.60;;
434;SDS011;204;48.942;9.256;2022-07-06T07:07:31;5.90;;;2.50;;
434;SDS011;204;48.942;9.256;2022-07-06T07:09:58;3.87;;;2.80;;
434;SDS011;204;48.942;9.256;2022-07-06T07:12:23;2.73;;;2.53;;
434;SDS011;204;48.942;9.256;2022-07-06T07:14:49;5.40;;;2.40;;
434;SDS011;204;48.942;9.256;2022-07-06T07:17:15;2.80;;;2.60;;
434;SDS011;204;48.942;9.256;2022-07-06T07:19:40;7.33;;;3.07;;
434;SDS011;204;48.942;9.256;2022-07-06T07:22:06;12.87;;;3.03;;
434;SDS011;204;48.942;9.256;2022-07-06T07:24:32;8.23;;;5.83;;
434;SDS011;204;48.942;9.256;2022-07-06T07:26:57;6.93;;;6.03;;
434;SDS011;204;48.942;9.256;2022-07-06T07:29:23;7.63;;;3.20;;
434;SDS011;204;48.942;9.256;2022-07-06T07:31:48;4.77;;;2.43;;
434;SDS011;204;48.942;9.256;2022-07-06T07:34:14;2.70;;;2.50;;
434;SDS011;204;48.942;9.256;2022-07-06T07:36:40;5.03;;;2.87;;
434;SDS011;204;48.942;9.256;2022-07-06T07:39:05;3.77;;;3.30;;
434;SDS011;204;48.942;9.256;2022-07-06T07:41:31;3.27;;;3.10;;
434;SDS011;204;48.942;9.256;2022-07-06T07:43:57;10.33;;;6.57;;
434;SDS011;204;48.942;9.256;2022-07-06T07:46:22;5.37;;;2.40;;
434;SDS011;204;48.942;9.256;2022-07-06T07:48:48;4.10;;;2.60;;
434;SDS011;204;48.942;9.256;2022-07-06T07:51:13;2.87;;;2.70;;
434;SDS011;204;48.942;9.256;2022-07-06T07:53:39;4.40;;;3.17;;
434;SDS011;204;48.942;9.256;2022-07-06T07:56:05;6.23;;;2.90;;
434;SDS011;204;48.942;9.256;2022-07-06T07:58:30;2.80;;;2.60;;
434;SDS011;204;48.942;9.256;2022-07-06T08:00:56;3.10;;;2.93;;
434;SDS011;204;48.942;9.256;2022-07-06T08:03:22;5.60;;;3.63;;
434;SDS011;204;48.942;9.256;2022-07-06T08:05:47;3.50;;;2.90;;
434;SDS011;204;48.942;9.256;2022-07-06T08:08:13;4.93;;;3.07;;
434;SDS011;204;48.942;9.256;2022-07-06T08:10:39;6.50;;;3.47;;
434;SDS011;204;48.942;9.256;2022-07-06T08:13:05;4.60;;;3.40;;
434;SDS011;204;48.942;9.256;2022-07-06T08:15:32;3.67;;;3.10;;
434;SDS011;204;48.942;9.256;2022-07-06T08:17:58;10.40;;;3.00;;
434;SDS011;204;48.942;9.256;2022-07-06T08:20:24;3.80;;;2.90;;
434;SDS011;204;48.942;9.256;2022-07-06T08:22:49;6.73;;;3.67;;
434;SDS011;204;48.942;9.256;2022-07-06T08:25:15;3.93;;;2.50;;
434;SDS011;204;48.942;9.256;2022-07-06T08:27:42;6.70;;;3.40;;
434;SDS011;204;48.942;9.256;2022-07-06T08:30:08;7.57;;;3.03;;
434;SDS011;204;48.942;9.256;2022-07-06T08:32:36;3.73;;;3.17;;
434;SDS011;204;48.942;9.256;2022-07-06T08:35:06;5.43;;;3.17;;
434;SDS011;204;48.942;9.256;2022-07-06T08:37:32;3.40;;;3.20;;
434;SDS011;204;48.942;9.256;2022-07-06T08:39:57;3.53;;;2.90;;
434;SDS011;204;48.942;9.256;2022-07-06T08:42:24;3.80;;;3.40;;
434;SDS011;204;48.942;9.256;2022-07-06T08:44:57;4.67;;;2.73;;
434;SDS011;204;48.942;9.256;2022-07-06T08:47:24;2.53;;;2.37;;
434;SDS011;204;48.942;9.256;2022-07-06T08:49:52;5.37;;;3.07;;
434;SDS011;204;48.942;9.256;2022-07-06T08:52:19;5.53;;;3.40;;
434;SDS011;204;48.942;9.256;2022-07-06T08:54:45;7.53;;;3.77;;
434;SDS011;204;48.942;9.256;2022-07-06T08:57:10;5.90;;;3.10;;
434;SDS011;204;48.942;9.256;2022-07-06T08:59:37;5.27;;;3.33;;
434;SDS011;204;48.942;9.256;2022-07-06T09:02:04;4.63;;;4.23;;
434;SDS011;204;48.942;9.256;2022-07-06T09:04:30;2.97;;;2.77;;
434;SDS011;204;48.942;9.256;2022-07-06T09:06:58;3.43;;;2.60;;
434;SDS011;204;48.942;9.256;2022-07-06T09:09:24;3.23;;;2.77;;
434;SDS011;204;48.942;9.256;2022-07-06T09:11:50;5.10;;;3.77;;
434;SDS011;204;48.942;9.256;2022-07-06T09:14:17;5.00;;;3.57;;
434;SDS011;204;48.942;9.256;2022-07-06T09:16:44;3.70;;;3.20;;
434;SDS011;204;48.942;9.256;2022-07-06T09:19:11;8.30;;;6.40;;
434;SDS011;204;48.942;9.256;2022-07-06T09:21:38;5.13;;;4.00;;
434;SDS011;204;48.942;9.256;2022-07-06T09:24:07;5.07;;;3.40;;
434;SDS011;204;48.942;9.256;2022-07-06T09:26:35;3.20;;;3.00;;
434;SDS011;204;48.942;9.256;2022-07-06T09:29:00;3.37;;;2.90;;
434;SDS011;204;48.942;9.256;2022-07-06T09:31:26;6.30;;;3.37;;
434;SDS011;204;48.942;9.256;2022-07-06T09:33:59;4.00;;;3.00;;
434;SDS011;204;48.942;9.256;2022-07-06T09:41:54;4.83;;;2.67;;
434;SDS011;204;48.942;9.256;2022-07-06T09:44:25;3.60;;;3.40;;
434;SDS011;204;48.942;9.256;2022-07-06T09:46:51;5.47;;;3.60;;
434;SDS011;204;48.942;9.256;2022-07-06T09:49:18;4.77;;;3.40;;
434;SDS011;204;48.942;9.256;2022-07-06T09:51:45;3.53;;;3.23;;
434;SDS011;204;48.942;9.256;2022-07-06T09:54:12;5.33;;;3.13;;
434;SDS011;204;48.942;9.256;2022-07-06T09:56:39;3.53;;;3.00;;
434;SDS011;204;48.942;9.256;2022-07-06T09:59:12;3.30;;;2.90;;
434;SDS011;204;48.942;9.256;2022-07-06T10:01:42;2.97;;;2.77;;
434;SDS011;204;48.942;9.256;2022-07-06T10:04:09;5.20;;;3.50;;
434;SDS011;204;48.942;9.256;2022-07-06T10:06:40;7.27;;;3.43;;
434;SDS011;204;48.942;9.256;2022-07-06T10:09:07;6.60;;;3.00;;
434;SDS011;204;48.942;9.256;2022-07-06T10:11:37;5.60;;;3.10;;
434;SDS011;204;48.942;9.256;2022-07-06T10:14:03;2.53;;;2.40;;
434;SDS011;204;48.942;9.256;2022-07-06T10:16:31;3.93;;;3.43;;
434;SDS011;204;48.942;9.256;2022-07-06T10:18:58;5.20;;;2.90;;
434;SDS011;204;48.942;9.256;2022-07-06T10:21:26;3.67;;;3.37;;
434;SDS011;204;48.942;9.256;2022-07-06T10:23:52;3.90;;;3.47;;
434;SDS011;204;48.942;9.256;2022-07-06T10:26:19;3.07;;;2.87;;
434;SDS011;204;48.942;9.256;2022-07-06T10:28:47;3.00;;;2.80;;
434;SDS011;204;48.942;9.256;2022-07-06T10:31:14;5.37;;;3.20;;
434;SDS011;204;48.942;9.256;2022-07-06T10:33:41;5.90;;;2.90;;
434;SDS011;204;48.942;9.256;2022-07-06T10:36:08;3.10;;;2.90;;
434;SDS011;204;48.942;9.256;2022-07-06T10:38:35;3.90;;;2.60;;
434;SDS011;204;48.942;9.256;2022-07-06T10:41:05;6.50;;;2.70;;
434;SDS011;204;48.942;9.256;2022-07-06T10:48:37;3.20;;;2.30;;
434;SDS011;204;48.942;9.256;2022-07-06T10:51:04;7.10;;;3.37;;
434;SDS011;204;48.942;9.256;2022-07-06T10:53:31;4.50;;;3.87;;
434;SDS011;204;48.942;9.256;2022-07-06T10:55:58;3.07;;;2.90;;
434;SDS011;204;48.942;9.256;2022-07-06T10:58:40;2.50;;;2.30;;
434;SDS011;204;48.942;9.256;2022-07-06T11:01:13;4.33;;;2.40;;
434;SDS011;204;48.942;9.256;2022-07-06T11:06:31;3.87;;;2.40;;
434;SDS011;204;48.942;9.256;2022-07-06T11:09:00;5.37;;;2.37;;
434;SDS011;204;48.942;9.256;2022-07-06T11:14:00;3.20;;;2.70;;
434;SDS011;204;48.942;9.256;2022-07-06T11:16:28;12.73;;;2.50;;
434;SDS011;204;48.942;9.256;2022-07-06T11:19:20;3.20;;;3.00;;
434;SDS011;204;48.942;9.256;2022-07-06T11:21:52;3.70;;;2.80;;
434;SDS011;204;48.942;9.256;2022-07-06T11:24:21;3.17;;;2.43;;
434;SDS011;204;48.942;9.256;2022-07-06T11:26:48;3.03;;;2.80;;
434;SDS011;204;48.942;9.256;2022-07-06T11:29:16;4.30;;;2.50;;
434;SDS011;204;48.942;9.256;2022-07-06T11:31:44;2.50;;;2.30;;
434;SDS011;204;48.942;9.256;2022-07-06T11:34:12;2.27;;;2.07;;
434;SDS011;204;48.942;9.256;2022-07-06T11:36:42;6.27;;;2.73;;
434;SDS011;204;48.942;9.256;2022-07-06T11:39:08;5.77;;;2.30;;
434;SDS011;204;48.942;9.256;2022-07-06T11:41:41;3.47;;;2.50;;
434;SDS011;204;48.942;9.256;2022-07-06T11:44:07;2.30;;;2.10;;
434;SDS011;204;48.942;9.256;2022-07-06T11:46:33;3.20;;;2.70;;
434;SDS011;204;48.942;9.256;2022-07-06T11:51:28;6.33;;;2.73;;
434;SDS011;204;48.942;9.256;2022-07-06T11:53:56;4.00;;;2.87;;
434;SDS011;204;48.942;9.256;2022-07-06T11:56:26;3.90;;;2.80;;
434;SDS011;204;48.942;9.256;2022-07-06T11:58:54;3.73;;;2.60;;
434;SDS011;204;48.942;9.256;2022-07-06T12:01:22;6.03;;;3.20;;
434;SDS011;204;48.942;9.256;2022-07-06T12:03:49;4.13;;;3.03;;
434;SDS011;204;48.942;9.256;2022-07-06T12:08:46;4.40;;;3.40;;
434;SDS011;204;48.942;9.256;2022-07-06T12:11:26;4.10;;;3.30;;
434;SDS011;204;48.942;9.256;2022-07-06T12:13:54;3.80;;;3.43;;
434;SDS011;204;48.942;9.256;2022-07-06T12:16:20;3.73;;;3.13;;
434;SDS011;204;48.942;9.256;2022-07-06T12:18:49;4.03;;;3.47;;
434;SDS011;204;48.942;9.256;2022-07-06T12:21:16;2.90;;;2.73;;
434;SDS011;204;48.942;9.256;2022-07-06T12:23:48;5.40;;;3.27;;
434;SDS011;204;48.942;9.256;2022-07-06T12:26:16;8.33;;;2.53;;
434;SDS011;204;48.942;9.256;2022-07-06T12:28:44;5.33;;;2.80;;
434;SDS011;204;48.942;9.256;2022-07-06T12:31:10;4.90;;;3.90;;
434;SDS011;204;48.942;9.256;2022-07-06T12:33:36;5.33;;;3.27;;
434;SDS011;204;48.942;9.256;2022-07-06T12:36:41;5.87;;;3.23;;
434;SDS011;204;48.942;9.256;2022-07-06T12:38:55;6.90;;;3.53;;
434;SDS011;204;48.942;9.256;2022-07-06T12:41:25;3.17;;;2.97;;
434;SDS011;204;48.942;9.256;2022-07-06T12:44:06;3.87;;;3.23;;
434;SDS011;204;48.942;9.256;2022-07-06T12:46:37;10.10;;;3.40;;
434;SDS011;204;48.942;9.256;2022-07-06T12:49:10;3.10;;;2.90;;
434;SDS011;204;48.942;9.256;2022-07-06T12:51:51;3.90;;;3.13;;
434;SDS011;204;48.942;9.256;2022-07-06T12:54:35;5.73;;;2.63;;
434;SDS011;204;48.942;9.256;2022-07-06T12:59:44;4.07;;;2.73;;
434;SDS011;204;48.942;9.256;2022-07-06T13:02:22;2.73;;;2.40;;
434;SDS011;204;48.942;9.256;2022-07-06T13:05:00;2.03;;;1.93;;
434;SDS011;204;48.942;9.256;2022-07-06T13:07:29;3.47;;;2.30;;
434;SDS011;204;48.942;9.256;2022-07-06T13:10:01;3.27;;;2.43;;
434;SDS011;204;48.942;9.256;2022-07-06T13:12:28;2.70;;;2.20;;
434;SDS011;204;48.942;9.256;2022-07-06T13:14:54;5.10;;;2.30;;
434;SDS011;204;48.942;9.256;2022-07-06T13:17:19;2.47;;;2.27;;
434;SDS011;204;48.942;9.256;2022-07-06T13:19:45;2.87;;;2.50;;
434;SDS011;204;48.942;9.256;2022-07-06T13:22:11;3.40;;;2.60;;
434;SDS011;204;48.942;9.256;2022-07-06T13:24:37;2.53;;;2.20;;
434;SDS011;204;48.942;9.256;2022-07-06T13:27:02;4.27;;;2.60;;
434;SDS011;204;48.942;9.256;2022-07-06T13:29:28;3.87;;;2.20;;
434;SDS011;204;48.942;9.256;2022-07-06T13:31:54;2.47;;;2.27;;
434;SDS011;204;48.942;9.256;2022-07-06T13:34:20;2.00;;;1.90;;
434;SDS011;204;48.942;9.256;2022-07-06T13:36:45;3.67;;;2.17;;
434;SDS011;204;48.942;9.256;2022-07-06T13:39:11;5.13;;;2.20;;
434;SDS011;204;48.942;9.256;2022-07-06T13:41:37;2.03;;;1.80;;
434;SDS011;204;48.942;9.256;2022-07-06T13:44:03;3.83;;;2.53;;
434;SDS011;204;48.942;9.256;2022-07-06T13:46:29;4.17;;;2.27;;
434;SDS011;204;48.942;9.256;2022-07-06T13:48:58;2.20;;;2.00;;
434;SDS011;204;48.942;9.256;2022-07-06T13:51:24;2.23;;;2.03;;
434;SDS011;204;48.942;9.256;2022-07-06T13:53:51;3.30;;;2.50;;
434;SDS011;204;48.942;9.256;2022-07-06T13:56:17;3.40;;;2.60;;
434;SDS011;204;48.942;9.256;2022-07-06T13:58:43;2.60;;;2.40;;
434;SDS011;204;48.942;9.256;2022-07-06T14:01:09;2.43;;;1.80;;
434;SDS011;204;48.942;9.256;2022-07-06T14:03:35;3.27;;;1.90;;
434;SDS011;204;48.942;9.256;2022-07-06T14:06:03;4.50;;;2.20;;
434;SDS011;204;48.942;9.256;2022-07-06T14:08:32;4.30;;;2.27;;
434;SDS011;204;48.942;9.256;2022-07-06T14:10:57;3.17;;;1.90;;
434;SDS011;204;48.942;9.256;2022-07-06T14:13:23;3.83;;;2.20;;
434;SDS011;204;48.942;9.256;2022-07-06T14:15:49;6.53;;;2.30;;
434;SDS011;204;48.942;9.256;2022-07-06T14:18:15;1.87;;;1.80;;
434;SDS011;204;48.942;9.256;2022-07-06T14:20:42;3.93;;;2.70;;
434;SDS011;204;48.942;9.256;2022-07-06T14:23:09;2.63;;;2.37;;
434;SDS011;204;48.942;9.256;2022-07-06T14:25:36;2.00;;;1.83;;
434;SDS011;204;48.942;9.256;2022-07-06T14:28:02;2.33;;;1.63;;
434;SDS011;204;48.942;9.256;2022-07-06T14:30:28;3.83;;;2.23;;
434;SDS011;204;48.942;9.256;2022-07-06T14:32:54;2.03;;;1.93;;
434;SDS011;204;48.942;9.256;2022-07-06T14:35:20;4.63;;;2.60;;
434;SDS011;204;48.942;9.256;2022-07-06T14:37:45;4.30;;;2.23;;
434;SDS011;204;48.942;9.256;2022-07-06T14:40:12;1.60;;;1.50;;
434;SDS011;204;48.942;9.256;2022-07-06T14:42:37;4.50;;;2.10;;
434;SDS011;204;48.942;9.256;2022-07-06T14:45:03;4.93;;;2.23;;
434;SDS011;204;48.942;9.256;2022-07-06T14:47:29;2.60;;;2.10;;
434;SDS011;204;48.942;9.256;2022-07-06T14:49:55;2.30;;;1.87;;
434;SDS011;204;48.942;9.256;2022-07-06T14:52:23;2.10;;;1.73;;
434;SDS011;204;48.942;9.256;2022-07-06T14:54:49;3.20;;;2.10;;
434;SDS011;204;48.942;9.256;2022-07-06T14:57:14;2.37;;;2.20;;
434;SDS011;204;48.942;9.256;2022-07-06T14:59:40;2.17;;;1.90;;
434;SDS011;204;48.942;9.256;2022-07-06T15:02:05;2.70;;;2.10;;
434;SDS011;204;48.942;9.256;2022-07-06T15:04:31;2.80;;;1.90;;
434;SDS011;204;48.942;9.256;2022-07-06T15:06:58;2.07;;;1.77;;
434;SDS011;204;48.942;9.256;2022-07-06T15:09:23;3.70;;;1.57;;
434;SDS011;204;48.942;9.256;2022-07-06T15:11:51;8.37;;;1.80;;
434;SDS011;204;48.942;9.256;2022-07-06T15:14:17;2.27;;;2.03;;
434;SDS011;204;48.942;9.256;2022-07-06T15:16:43;2.33;;;1.80;;
434;SDS011;204;48.942;9.256;2022-07-06T15:19:09;2.97;;;2.17;;
434;SDS011;204;48.942;9.256;2022-07-06T15:21:35;4.00;;;1.77;;
434;SDS011;204;48.942;9.256;2022-07-06T15:24:00;2.17;;;2.00;;
434;SDS011;204;48.942;9.256;2022-07-06T15:26:26;2.13;;;1.70;;
434;SDS011;204;48.942;9.256;2022-07-06T15:28:52;2.10;;;1.73;;
434;SDS011;204;48.942;9.256;2022-07-06T15:31:17;5.67;;;2.17;;
434;SDS011;204;48.942;9.256;2022-07-06T15:33:43;9.63;;;3.90;;
434;SDS011;204;48.942;9.256;2022-07-06T15:36:09;3.93;;;3.37;;
434;SDS011;204;48.942;9.256;2022-07-06T15:38:35;2.40;;;1.63;;
434;SDS011;204;48.942;9.256;2022-07-06T15:41:01;2.87;;;2.17;;
434;SDS011;204;48.942;9.256;2022-07-06T15:43:28;2.20;;;1.53;;
434;SDS011;204;48.942;9.256;2022-07-06T15:45:55;6.73;;;1.77;;
434;SDS011;204;48.942;9.256;2022-07-06T15:48:23;2.37;;;2.17;;
434;SDS011;204;48.942;9.256;2022-07-06T15:50:52;4.20;;;3.07;;
434;SDS011;204;48.942;9.256;2022-07-06T15:53:18;1.93;;;1.50;;
434;SDS011;204;48.942;9.256;2022-07-06T15:55:44;2.53;;;1.90;;
434;SDS011;204;48.942;9.256;2022-07-06T15:58:10;2.90;;;1.30;;
434;SDS011;204;48.942;9.256;2022-07-06T16:00:36;1.83;;;1.40;;
434;SDS011;204;48.942;9.256;2022-07-06T16:03:02;2.30;;;2.10;;
434;SDS011;204;48.942;9.256;2022-07-06T16:05:28;6.47;;;4.93;;